Time;durP1;ratioP1;P1;durP2;ratioP2;P2;SDS_P1;SDS_P2;PMS_P1;PMS_P2;Temp;Humidity;BMP_temperature;BMP_pressure;BME280_temperature;BME280_humidity;BME280_pressure;Samples;Min_cycle;Max_cycle;Signal;HPM_P1;HPM_P2
2023/01/05 00:01:05;;;;;;;20.00;4.43;;;;;;;11.85;70.18;101637.03;5098638;28;20098;-63
2023/01/05 00:03:34;;;;;;;22.67;5.28;;;;;;;11.84;70.26;101638.06;5105250;28;20075;-63
2023/01/05 00:06:07;;;;;;;28.50;5.40;;;;;;;11.84;70.04;101646.97;5099512;28;20050;-64
2023/01/05 00:08:34;;;;;;;30.02;6.07;;;;;;;11.83;69.87;101656.09;5104129;28;20087;-63
2023/01/05 00:22:30;;;;;;;21.60;5.22;;;;;;;11.82;69.92;101640.16;5020677;28;20506;-63
2023/01/05 00:24:59;;;;;;;29.38;5.75;;;;;;;11.82;70.37;101640.16;5016379;28;20050;-63
2023/01/05 00:27:36;;;;;;;22.75;5.13;;;;;;;11.81;69.81;101639.31;5018821;28;20052;-64
2023/01/05 00:30:05;;;;;;;25.45;5.53;;;;;;;11.73;69.99;101642.22;5015014;28;20085;-63
2023/01/05 00:32:33;;;;;;;25.73;5.72;;;;;;;11.82;69.95;101653.63;5018463;28;20133;-63
2023/01/05 00:35:02;;;;;;;27.25;6.25;;;;;;;11.80;69.93;101651.13;5014899;28;20060;-63
2023/01/05 00:37:33;;;;;;;21.48;5.85;;;;;;;11.79;69.64;101648.66;5016221;28;20158;-63
2023/01/05 00:40:02;;;;;;;25.73;6.05;;;;;;;11.78;70.02;101650.53;5015175;28;20049;-64
2023/01/05 00:42:30;;;;;;;22.10;4.32;;;;;;;11.79;69.99;101640.56;5017986;28;20088;-64
2023/01/05 00:44:58;;;;;;;24.70;5.60;;;;;;;11.79;69.86;101635.19;5010525;28;20492;-60
2023/01/05 00:47:26;;;;;;;25.77;5.50;;;;;;;11.79;69.79;101637.88;5019286;28;20077;-64
2023/01/05 00:49:54;;;;;;;23.08;5.00;;;;;;;11.76;69.77;101632.88;5011037;28;20069;-63
2023/01/05 00:52:21;;;;;;;23.52;5.13;;;;;;;11.77;69.73;101645.31;5026067;28;20080;-63
2023/01/05 00:54:51;;;;;;;30.88;6.55;;;;;;;11.75;70.03;101637.44;5100710;28;20055;-63
2023/01/05 00:57:19;;;;;;;24.63;4.35;;;;;;;11.73;69.89;101651.13;5103829;28;20116;-63
2023/01/05 00:59:46;;;;;;;21.92;4.70;;;;;;;11.75;69.60;101640.13;5103376;28;20340;-64
2023/01/05 01:02:14;;;;;;;18.63;4.10;;;;;;;11.73;69.81;101645.72;5102999;28;20071;-63
2023/01/05 01:04:43;;;;;;;29.67;6.88;;;;;;;11.73;69.81;101656.50;5100635;28;20654;-59
2023/01/05 01:07:10;;;;;;;22.88;5.15;;;;;;;11.74;69.78;101660.03;5102455;28;20040;-63
2023/01/05 01:09:40;;;;;;;30.67;5.50;;;;;;;11.73;69.97;101652.97;5098454;28;20163;-62
2023/01/05 01:12:09;;;;;;;17.67;4.90;;;;;;;11.70;69.92;101656.09;5104772;28;20055;-64
2023/01/05 01:14:38;;;;;;;28.20;6.57;;;;;;;11.70;69.95;101658.78;5103410;28;20107;-64
2023/01/05 01:17:06;;;;;;;21.33;4.82;;;;;;;11.68;70.02;101663.56;5100384;28;20056;-63
2023/01/05 01:19:34;;;;;;;25.38;6.03;;;;;;;11.68;70.07;101658.16;5102268;28;20047;-63
2023/01/05 01:22:02;;;;;;;30.88;6.95;;;;;;;11.66;70.36;101652.16;5101563;28;20054;-64
2023/01/05 01:24:30;;;;;;;27.77;5.78;;;;;;;11.65;70.30;101655.88;5102976;28;20102;-64
2023/01/05 01:26:58;;;;;;;20.98;5.70;;;;;;;11.65;70.22;101662.09;5100995;28;20044;-59
2023/01/05 01:29:28;;;;;;;20.50;5.10;;;;;;;11.65;70.54;101666.66;5107682;28;20070;-64
2023/01/05 01:31:56;;;;;;;28.75;7.28;;;;;;;11.64;70.54;101670.38;5103061;28;20447;-63
2023/01/05 01:34:24;;;;;;;23.38;5.45;;;;;;;11.62;70.32;101675.97;5099940;28;20074;-63
2023/01/05 01:36:54;;;;;;;23.73;5.15;;;;;;;11.62;70.30;101675.16;5100988;28;20634;-64
2023/01/05 01:39:23;;;;;;;21.85;5.70;;;;;;;11.61;70.14;101685.09;5101574;28;20056;-64
2023/01/05 01:41:51;;;;;;;22.45;5.35;;;;;;;11.60;70.31;101688.81;5103117;28;20054;-63
2023/01/05 01:44:52;;;;;;;21.55;5.03;;;;;;;11.61;70.39;101679.72;5100217;28;20051;-60
2023/01/05 01:47:26;;;;;;;24.27;5.80;;;;;;;11.59;70.43;101683.66;5099292;28;20121;-64
2023/01/05 01:49:57;;;;;;;25.10;5.95;;;;;;;11.58;70.29;101682.00;5099577;28;20394;-64
2023/01/05 01:52:27;;;;;;;22.90;5.35;;;;;;;11.57;70.62;101678.47;5094091;28;20067;-64
2023/01/05 01:54:56;;;;;;;23.90;5.85;;;;;;;11.58;70.51;101687.38;5104010;28;20156;-64
2023/01/05 01:57:26;;;;;;;25.17;6.00;;;;;;;11.57;70.60;101689.25;5103336;28;20083;-64
2023/01/05 01:59:58;;;;;;;21.73;4.50;;;;;;;11.57;70.73;101693.78;5101875;28;20075;-63
2023/01/05 02:02:27;;;;;;;25.70;6.40;;;;;;;11.47;70.62;101683.44;5095543;28;20044;-63
2023/01/05 02:04:59;;;;;;;24.13;5.32;;;;;;;11.55;70.51;101694.00;5100933;28;20048;-63
2023/01/05 02:07:32;;;;;;;22.08;5.10;;;;;;;11.54;70.98;101703.13;5103793;28;20053;-63
2023/01/05 02:10:02;;;;;;;29.65;7.43;;;;;;;11.53;70.91;101690.69;5099815;28;20050;-63
2023/01/05 02:12:39;;;;;;;25.00;4.80;;;;;;;11.53;70.51;101695.25;5102881;28;20108;-64
2023/01/05 02:15:22;;;;;;;29.05;5.90;;;;;;;11.52;70.72;101698.97;5102980;28;20052;-64
2023/01/05 02:18:05;;;;;;;35.78;5.55;;;;;;;11.51;70.81;101695.44;5095434;28;20064;-64
2023/01/05 02:20:45;;;;;;;25.00;5.18;;;;;;;11.50;70.75;101699.19;5102446;28;20107;-64
2023/01/05 02:23:35;;;;;;;23.27;5.38;;;;;;;11.51;71.00;101700.00;5106154;28;20048;-63
2023/01/05 02:26:21;;;;;;;27.58;5.40;;;;;;;11.50;71.04;101709.13;5107010;28;20064;-62
2023/01/05 02:29:11;;;;;;;27.55;5.78;;;;;;;11.50;70.96;101709.13;5111114;28;20052;-64
2023/01/05 02:31:46;;;;;;;18.13;4.60;;;;;;;11.49;70.84;101712.84;5105989;28;20473;-64
2023/01/05 02:34:21;;;;;;;26.90;6.07;;;;;;;11.48;70.94;101709.31;5097805;28;20087;-63
2023/01/05 02:36:54;;;;;;;23.33;5.72;;;;;;;11.47;70.99;101702.28;5103623;28;20117;-64
2023/01/05 02:39:28;;;;;;;27.85;6.13;;;;;;;11.48;71.09;101705.81;5107589;28;20473;-64
2023/01/05 02:42:01;;;;;;;23.05;4.43;;;;;;;11.46;71.18;101708.72;5100741;28;20048;-64
2023/01/05 02:44:30;;;;;;;28.80;6.68;;;;;;;11.47;71.20;101707.66;5104406;28;20505;-63
2023/01/05 02:47:02;;;;;;;21.27;4.43;;;;;;;11.46;71.16;101707.88;5101512;28;21058;-63
2023/01/05 02:49:33;;;;;;;28.13;8.05;;;;;;;11.46;71.37;101716.78;5107540;28;20054;-63
2023/01/05 02:52:04;;;;;;;26.90;4.80;;;;;;;11.45;71.08;101709.75;5097141;28;20135;-63
2023/01/05 02:54:38;;;;;;;20.08;5.38;;;;;;;11.46;70.99;101722.16;5105041;28;20079;-59
2023/01/05 02:57:12;;;;;;;28.58;5.43;;;;;;;11.46;71.27;101718.66;5101093;28;20058;-63
2023/01/05 02:59:43;;;;;;;23.70;6.13;;;;;;;11.46;71.17;101706.00;5106205;28;20100;-63
2023/01/05 03:02:18;;;;;;;27.27;5.63;;;;;;;11.46;71.16;101713.25;5105962;28;20050;-63
2023/01/05 03:04:51;;;;;;;30.98;5.68;;;;;;;11.45;70.93;101717.81;5105001;28;20044;-63
2023/01/05 03:07:26;;;;;;;27.08;6.40;;;;;;;11.45;70.88;101717.81;5106230;28;20532;-63
2023/01/05 03:09:54;;;;;;;24.73;5.07;;;;;;;11.46;70.88;101707.88;5099289;28;20048;-63
2023/01/05 03:15:19;;;;;;;27.42;5.38;;;;;;;11.47;71.23;101728.38;5095577;28;20073;-62
2023/01/05 03:17:52;;;;;;;26.00;6.18;;;;;;;11.47;71.02;101728.38;5101396;28;20116;-56
2023/01/05 03:20:22;;;;;;;19.55;4.40;;;;;;;11.38;70.76;101720.50;5098786;28;20044;-61
2023/01/05 03:37:07;;;;;;;29.63;5.55;;;;;;;11.43;70.82;101727.97;5104131;28;20044;-64
2023/01/05 03:39:38;;;;;;;30.45;5.60;;;;;;;11.43;70.95;101727.97;5106908;28;20090;-64
2023/01/05 03:42:08;;;;;;;26.67;6.18;;;;;;;11.43;70.86;101730.66;5099224;28;20044;-63
2023/01/05 03:44:37;;;;;;;17.52;5.50;;;;;;;11.44;71.26;101723.41;5100836;28;20155;-63
2023/01/05 03:47:06;;;;;;;17.52;3.90;;;;;;;11.36;71.04;101713.66;5105398;28;20107;-62
2023/01/05 03:49:35;;;;;;;21.83;5.20;;;;;;;11.44;71.32;101731.47;5106165;28;20044;-63
2023/01/05 03:52:04;;;;;;;24.88;5.43;;;;;;;11.42;71.00;101729.00;5099189;28;20406;-62
2023/01/05 03:54:32;;;;;;;29.65;5.35;;;;;;;11.40;70.87;101723.81;5105025;28;20111;-63
2023/01/05 03:56:59;;;;;;;20.30;4.95;;;;;;;11.40;70.95;101736.44;5105796;28;20130;-62
2023/01/05 03:59:27;;;;;;;23.45;5.55;;;;;;;11.31;70.92;101730.44;5104588;28;20048;-61
2023/01/05 04:01:55;;;;;;;23.42;5.65;;;;;;;11.39;70.97;101748.25;5102656;28;20055;-62
2023/01/05 04:04:23;;;;;;;27.67;5.32;;;;;;;11.39;70.63;101732.09;5106010;28;20048;-63
2023/01/05 04:06:52;;;;;;;27.80;5.70;;;;;;;11.40;70.67;101744.53;5104334;28;20079;-62
2023/01/05 04:09:21;;;;;;;24.00;6.05;;;;;;;11.39;70.75;101737.47;5105173;28;20044;-62
2023/01/05 04:11:48;;;;;;;29.88;6.30;;;;;;;11.39;70.72;101741.00;5099766;28;20043;-63
2023/01/05 04:14:16;;;;;;;34.47;7.10;;;;;;;11.40;70.47;101741.81;5104715;28;20064;-56
2023/01/05 04:16:44;;;;;;;30.67;5.18;;;;;;;11.40;70.56;101741.81;5110383;28;20122;-63
2023/01/05 04:19:12;;;;;;;31.30;6.20;;;;;;;11.40;70.95;101744.53;5105949;28;20058;-62
2023/01/05 04:21:40;;;;;;;25.75;6.00;;;;;;;11.40;70.62;101731.06;5104433;28;20556;-63
2023/01/05 04:24:11;;;;;;;22.92;5.88;;;;;;;11.39;70.82;101745.56;5105100;28;20078;-63
2023/01/05 04:26:40;;;;;;;22.42;5.15;;;;;;;11.40;70.96;101741.81;5104515;28;20044;-63
2023/01/05 04:29:09;;;;;;;20.95;3.83;;;;;;;11.32;71.06;101732.09;5101918;28;20430;-64
2023/01/05 04:31:37;;;;;;;26.20;5.93;;;;;;;11.39;71.09;101750.94;5103691;28;20040;-64
2023/01/05 04:34:05;;;;;;;29.75;5.68;;;;;;;11.36;70.99;101749.47;5105248;28;20156;-64
2023/01/05 04:36:33;;;;;;;28.98;6.65;;;;;;;11.38;71.05;101752.78;5101254;28;20087;-64
2023/01/05 04:39:01;;;;;;;23.92;5.13;;;;;;;11.37;71.20;101739.53;5104443;28;20100;-63
2023/01/05 04:41:30;;;;;;;24.45;4.95;;;;;;;11.36;71.17;101748.66;5103508;28;20154;-64
2023/01/05 04:43:58;;;;;;;25.88;5.78;;;;;;;11.36;71.27;101754.03;5103810;28;20072;-63
2023/01/05 04:46:25;;;;;;;25.25;7.03;;;;;;;11.36;71.09;101749.47;5091644;28;20107;-64
2023/01/05 04:48:53;;;;;;;26.90;6.80;;;;;;;11.36;71.14;101752.19;5105345;28;20078;-63
2023/01/05 04:51:21;;;;;;;26.63;5.35;;;;;;;11.37;71.19;101747.63;5103369;28;20340;-61
2023/01/05 04:53:49;;;;;;;28.67;6.57;;;;;;;11.37;71.15;101748.44;5101762;28;20497;-62
2023/01/05 04:56:17;;;;;;;26.80;5.28;;;;;;;11.37;70.94;101747.63;5104926;28;20044;-64
2023/01/05 04:58:46;;;;;;;29.95;6.22;;;;;;;11.37;71.25;101750.31;5104647;28;20404;-64
2023/01/05 05:01:14;;;;;;;30.23;5.55;;;;;;;11.35;70.89;101749.69;5101723;28;20167;-62
2023/01/05 05:03:42;;;;;;;22.35;6.28;;;;;;;11.37;70.97;101761.06;5104290;28;20541;-63
2023/01/05 05:06:10;;;;;;;20.80;5.53;;;;;;;11.36;71.15;101762.09;5103299;28;20511;-64
2023/01/05 05:08:38;;;;;;;25.05;5.22;;;;;;;11.37;70.90;101758.38;5097024;28;20071;-63
2023/01/05 05:11:06;;;;;;;25.10;5.15;;;;;;;11.37;71.12;101761.91;5104689;28;20056;-63
2023/01/05 05:13:33;;;;;;;32.38;5.47;;;;;;;11.37;71.18;101767.28;5102261;28;20103;-64
2023/01/05 05:16:03;;;;;;;20.77;4.88;;;;;;;11.36;70.98;101773.72;5101234;28;20048;-63
2023/01/05 05:18:31;;;;;;;27.88;6.70;;;;;;;11.37;70.86;101774.53;5106075;28;20048;-63
2023/01/05 05:20:58;;;;;;;22.75;5.68;;;;;;;11.37;71.11;101766.47;5113968;28;20078;-63
2023/01/05 05:23:26;;;;;;;29.67;6.10;;;;;;;11.37;71.26;101769.16;5091200;28;20048;-63
2023/01/05 05:25:54;;;;;;;23.67;6.18;;;;;;;11.36;71.07;101779.09;5108094;28;20054;-63
2023/01/05 05:28:26;;;;;;;27.65;5.63;;;;;;;11.37;71.01;101771.84;5102778;28;20107;-63
2023/01/05 05:30:55;;;;;;;30.90;7.22;;;;;;;11.36;71.04;101762.09;5109301;28;20067;-63
2023/01/05 05:33:25;;;;;;;25.75;5.07;;;;;;;11.37;71.11;101769.97;5105557;28;20046;-56
2023/01/05 05:35:53;;;;;;;31.38;6.22;;;;;;;11.36;70.99;101778.25;5108813;28;20067;-63
2023/01/05 05:38:21;;;;;;;23.08;4.93;;;;;;;11.36;70.86;101779.09;5106583;28;20051;-64
2023/01/05 05:40:49;;;;;;;25.42;5.72;;;;;;;11.35;70.91;101790.88;5097547;28;20116;-64
2023/01/05 05:43:17;;;;;;;28.67;6.28;;;;;;;11.37;71.07;101796.06;5108232;28;20048;-64
2023/01/05 05:45:45;;;;;;;26.63;5.47;;;;;;;11.35;71.09;101798.13;5101613;28;20126;-64
2023/01/05 05:48:17;;;;;;;28.23;5.60;;;;;;;11.35;71.21;101800.81;5100363;28;20056;-63
2023/01/05 05:50:47;;;;;;;33.50;6.05;;;;;;;11.34;70.82;101800.00;5109927;28;20071;-62
2023/01/05 05:53:15;;;;;;;31.27;6.93;;;;;;;11.34;71.02;101809.94;5101581;28;20117;-63
2023/01/05 05:55:42;;;;;;;25.92;5.13;;;;;;;11.32;71.12;101804.75;5107809;28;20048;-61
2023/01/05 05:58:10;;;;;;;32.17;6.53;;;;;;;11.34;71.14;101812.63;5109026;28;20131;-63
2023/01/05 06:00:38;;;;;;;25.55;6.13;;;;;;;11.34;71.12;101812.63;5103723;28;20048;-64
2023/01/05 06:03:06;;;;;;;27.58;5.55;;;;;;;11.34;71.03;101820.69;5106488;28;20043;-62
2023/01/05 06:05:34;;;;;;;33.03;6.47;;;;;;;11.32;71.11;101820.91;5107144;28;20048;-63
2023/01/05 06:08:04;;;;;;;39.85;8.55;;;;;;;11.32;71.11;101822.75;5106523;28;20047;-65
2023/01/05 06:10:31;;;;;;;25.52;5.55;;;;;;;11.32;71.23;101833.53;5106679;28;20590;-64
2023/01/05 06:12:59;;;;;;;20.55;4.53;;;;;;;11.33;71.19;101827.09;5107843;28;20070;-62
2023/01/05 06:15:27;;;;;;;31.83;6.47;;;;;;;11.33;71.11;101832.50;5106059;28;20115;-64
2023/01/05 06:17:55;;;;;;;27.95;6.22;;;;;;;11.34;71.21;101826.06;5106522;28;20060;-63
2023/01/05 06:20:23;;;;;;;27.35;5.68;;;;;;;11.33;71.10;101837.88;5108061;28;20052;-64
2023/01/05 06:22:51;;;;;;;26.55;5.10;;;;;;;11.31;71.16;101837.25;5107659;28;20040;-63
2023/01/05 06:25:20;;;;;;;29.75;5.70;;;;;;;11.21;71.66;101817.97;5103911;28;20052;-62
2023/01/05 06:27:48;;;;;;;36.85;6.75;;;;;;;11.30;71.19;101843.66;5107417;28;20055;-64
2023/01/05 06:30:16;;;;;;;28.33;7.13;;;;;;;11.31;70.98;101846.16;5106114;28;20139;-63
2023/01/05 06:32:44;;;;;;;21.10;5.57;;;;;;;11.31;71.07;101850.69;5101857;28;20104;-63
2023/01/05 06:35:12;;;;;;;28.63;5.80;;;;;;;11.31;71.13;101846.16;5106343;28;20051;-63
2023/01/05 06:37:40;;;;;;;27.90;6.20;;;;;;;11.31;71.23;101850.69;5107155;28;20048;-64
2023/01/05 06:40:10;;;;;;;35.55;7.28;;;;;;;11.30;71.12;101849.03;5101141;28;20058;-64
2023/01/05 06:42:39;;;;;;;27.45;5.70;;;;;;;11.30;71.08;101849.03;5106348;28;20112;-64
2023/01/05 06:45:10;;;;;;;34.50;5.93;;;;;;;11.31;71.23;101858.78;5105687;28;20079;-62
2023/01/05 06:47:37;;;;;;;25.08;5.35;;;;;;;11.30;71.29;101863.31;5098950;28;20048;-62
2023/01/05 06:50:07;;;;;;;29.77;8.68;;;;;;;11.30;71.06;101866.03;4751503;28;9999836;-64
2023/01/05 06:52:38;;;;;;;32.72;5.72;;;;;;;11.30;71.00;101871.41;5101881;28;20528;-62
2023/01/05 06:55:08;;;;;;;39.92;7.18;;;;;;;11.30;70.69;101874.09;5101705;28;20103;-62
2023/01/05 06:57:36;;;;;;;24.60;6.70;;;;;;;11.30;71.29;101884.03;5103599;28;20104;-62
2023/01/05 07:00:08;;;;;;;24.77;7.22;;;;;;;11.30;71.10;101879.47;5101841;28;20054;-62
2023/01/05 07:02:36;;;;;;;35.92;6.43;;;;;;;11.31;71.23;101883.00;5100537;28;20845;-63
2023/01/05 07:05:04;;;;;;;38.05;7.18;;;;;;;11.31;70.92;101889.22;5102990;28;20040;-63
2023/01/05 07:07:32;;;;;;;23.98;5.30;;;;;;;11.29;70.83;101885.88;5098393;28;20048;-63
2023/01/05 07:10:00;;;;;;;35.67;6.30;;;;;;;11.29;70.75;101887.75;5098404;28;20045;-63
2023/01/05 07:12:28;;;;;;;28.70;7.05;;;;;;;11.22;70.92;101884.19;5100364;28;20056;-64
2023/01/05 07:14:56;;;;;;;31.13;6.82;;;;;;;11.30;71.01;101881.34;5099470;28;20095;-63
2023/01/05 07:17:27;;;;;;;28.95;6.22;;;;;;;11.29;71.08;101882.38;5103065;28;20060;-62
2023/01/05 07:19:55;;;;;;;27.80;6.60;;;;;;;11.29;70.99;101882.38;5101016;28;20058;-63
2023/01/05 07:22:22;;;;;;;26.58;5.85;;;;;;;11.28;71.28;101878.84;5103776;28;20075;-62
2023/01/05 07:24:50;;;;;;;32.97;6.03;;;;;;;11.28;71.19;101886.91;5102399;28;20077;-55
2023/01/05 07:27:18;;;;;;;21.42;5.75;;;;;;;11.29;71.58;101893.13;5102186;28;20052;-66
2023/01/05 07:29:46;;;;;;;36.40;5.93;;;;;;;11.29;71.28;101895.81;5101158;28;20058;-63
2023/01/05 07:32:14;;;;;;;23.80;5.95;;;;;;;11.20;71.14;101880.88;5102455;28;20052;-63
2023/01/05 07:34:43;;;;;;;27.15;6.97;;;;;;;11.29;71.33;101898.50;5102150;28;20044;-64
2023/01/05 07:37:22;;;;;;;36.08;7.05;;;;;;;11.29;71.47;101903.91;5099376;28;20535;-65
2023/01/05 07:39:49;;;;;;;29.02;6.82;;;;;;;11.29;71.42;101904.72;5100909;28;20040;-62
2023/01/05 07:42:17;;;;;;;44.70;9.82;;;;;;;11.29;71.21;101910.09;5102232;28;20135;-63
2023/01/05 07:44:45;;;;;;;38.38;6.50;;;;;;;11.28;71.37;101913.84;5104482;28;20104;-66
2023/01/05 07:47:13;;;;;;;24.67;6.22;;;;;;;11.29;71.57;101917.34;5104643;28;20059;-62
2023/01/05 07:49:41;;;;;;;31.83;6.60;;;;;;;11.28;71.27;101924.59;5093072;28;20083;-66
2023/01/05 07:52:10;;;;;;;38.30;5.53;;;;;;;11.29;71.37;101922.75;5103419;28;20115;-64
2023/01/05 07:54:38;;;;;;;29.83;5.72;;;;;;;11.28;71.30;101931.84;5102691;28;20162;-59
2023/01/05 07:57:06;;;;;;;42.33;7.60;;;;;;;11.27;71.13;101924.78;5100946;28;20108;-64
2023/01/05 07:59:34;;;;;;;24.30;6.88;;;;;;;11.26;71.29;101929.34;5102608;28;20040;-62
2023/01/05 08:02:01;;;;;;;31.38;7.13;;;;;;;11.26;71.67;101934.72;5102448;28;20381;-65
2023/01/05 08:04:29;;;;;;;31.38;5.35;;;;;;;11.25;71.51;101932.25;5103049;28;20127;-65
2023/01/05 08:06:58;;;;;;;24.27;6.45;;;;;;;11.24;71.51;101930.56;5107969;28;20197;-61
2023/01/05 08:12:13;;;;;;;31.17;6.05;;;;;;;11.25;71.46;101940.31;5103303;28;20147;-65
2023/01/05 08:14:41;;;;;;;36.60;8.18;;;;;;;11.25;71.52;101940.31;5101105;28;20048;-64
2023/01/05 08:17:09;;;;;;;30.35;6.55;;;;;;;11.24;71.59;101947.56;5104404;28;20052;-59
2023/01/05 08:19:37;;;;;;;30.42;6.43;;;;;;;11.25;71.24;101948.38;5103765;28;20078;-65
2023/01/05 08:22:04;;;;;;;30.42;6.97;;;;;;;11.26;71.47;101948.19;5104526;28;20044;-65
2023/01/05 08:24:34;;;;;;;34.38;6.38;;;;;;;11.26;71.21;101953.56;5102381;28;20076;-64
2023/01/05 08:27:02;;;;;;;27.17;6.70;;;;;;;11.27;71.24;101959.78;5103481;28;20052;-64
2023/01/05 08:29:29;;;;;;;33.63;8.15;;;;;;;11.26;71.04;101961.63;5099445;28;20075;-63
2023/01/05 08:31:57;;;;;;;38.33;7.28;;;;;;;11.19;71.31;101947.31;5102587;28;20043;-65
2023/01/05 08:34:25;;;;;;;33.65;6.22;;;;;;;11.26;71.17;101961.63;5101643;28;20047;-63
2023/01/05 08:37:01;;;;;;;38.53;8.45;;;;;;;11.25;71.22;101959.16;5101652;28;20044;-62
2023/01/05 08:39:29;;;;;;;23.17;5.57;;;;;;;11.17;71.45;101949.38;5103393;28;20072;-61
2023/01/05 08:41:58;;;;;;;29.85;8.10;;;;;;;11.16;71.06;101949.56;5102921;28;20104;-65
2023/01/05 08:44:29;;;;;;;35.28;7.13;;;;;;;11.24;71.14;101969.09;5097851;28;20144;-64
2023/01/05 08:46:57;;;;;;;30.52;6.93;;;;;;;11.25;71.24;101972.59;5100227;28;20047;-67
2023/01/05 08:49:25;;;;;;;30.35;6.72;;;;;;;11.36;71.14;101972.03;5099580;28;20113;-64
2023/01/05 08:51:53;;;;;;;36.80;8.43;;;;;;;11.49;70.33;101976.66;5103430;28;20051;-65
2023/01/05 08:54:20;;;;;;;30.95;7.68;;;;;;;11.66;70.10;101983.38;5102515;28;20058;-65
2023/01/05 08:56:49;;;;;;;24.17;6.95;;;;;;;11.83;69.38;101976.63;5100946;28;20052;-61
2023/01/05 08:59:19;;;;;;;29.10;6.22;;;;;;;12.02;68.89;101991.19;5102215;28;20100;-58
2023/01/05 09:01:46;;;;;;;35.28;7.53;;;;;;;12.17;67.68;101985.59;5101286;28;20051;-65
2023/01/05 09:04:14;;;;;;;33.47;7.35;;;;;;;12.33;67.38;101994.13;5102964;28;20083;-61
2023/01/05 09:06:43;;;;;;;31.33;5.68;;;;;;;12.49;66.55;101990.19;5100047;28;20044;-65
2023/01/05 09:09:10;;;;;;;33.53;7.20;;;;;;;12.60;66.19;101994.97;5102928;28;20056;-65
2023/01/05 09:11:41;;;;;;;30.67;7.03;;;;;;;12.73;65.57;101983.34;5100780;28;20052;-59
2023/01/05 09:14:13;;;;;;;23.77;6.40;;;;;;;12.84;65.34;101992.69;5101360;28;20414;-63
2023/01/05 09:16:42;;;;;;;30.05;6.18;;;;;;;12.85;65.54;101999.75;5100442;28;20052;-63
2023/01/05 09:19:31;;;;;;;35.85;7.35;;;;;;;12.73;65.80;101999.53;5101820;28;20052;-61
2023/01/05 09:21:58;;;;;;;35.85;8.85;;;;;;;12.57;66.12;102006.16;5101563;28;20564;-59
2023/01/05 09:24:26;;;;;;;34.83;6.50;;;;;;;12.41;66.76;102003.03;5102843;28;20050;-65
2023/01/05 09:26:54;;;;;;;28.50;6.72;;;;;;;12.25;67.59;102001.56;5099527;28;20116;-66
2023/01/05 09:29:22;;;;;;;35.42;5.93;;;;;;;12.14;68.07;102007.56;5101812;28;20069;-64
2023/01/05 09:31:52;;;;;;;29.38;5.30;;;;;;;12.06;68.38;102016.69;5100346;28;20093;-64
2023/01/05 09:34:19;;;;;;;28.95;5.68;;;;;;;12.00;68.51;102018.31;5097330;28;20591;-60
2023/01/05 09:36:47;;;;;;;31.88;7.63;;;;;;;11.93;68.69;102024.72;5102521;28;20116;-65
2023/01/05 09:39:15;;;;;;;34.13;7.13;;;;;;;11.89;68.68;102018.91;5099797;28;20047;-63
2023/01/05 09:41:46;;;;;;;35.13;6.85;;;;;;;11.84;69.11;102031.31;5100592;28;20492;-63
2023/01/05 09:44:22;;;;;;;35.75;7.75;;;;;;;11.77;69.68;102031.28;5097764;28;20082;-64
2023/01/05 09:46:54;;;;;;;38.50;7.38;;;;;;;11.76;69.42;102032.28;5099366;28;20071;-64
2023/01/05 09:49:24;;;;;;;30.45;5.80;;;;;;;11.74;69.30;102047.81;5102505;28;20048;-60
2023/01/05 09:51:59;;;;;;;29.90;7.55;;;;;;;11.71;69.75;102040.13;5101460;28;20040;-63
2023/01/05 09:54:29;;;;;;;34.78;8.45;;;;;;;11.67;69.70;102041.56;5098422;28;20066;-63
2023/01/05 09:56:59;;;;;;;38.03;8.40;;;;;;;11.64;69.77;102041.97;5100595;28;20074;-63
2023/01/05 09:59:38;;;;;;;33.13;8.00;;;;;;;11.61;69.75;102048.59;5099076;28;20063;-64
2023/01/05 10:02:28;;;;;;;30.90;7.20;;;;;;;11.60;69.93;102049.63;5102353;28;20064;-64
2023/01/05 10:04:58;;;;;;;33.08;7.28;;;;;;;11.49;69.94;102038.56;5099808;28;20070;-61
2023/01/05 10:07:35;;;;;;;32.58;7.18;;;;;;;11.55;70.47;102048.56;5101397;28;20147;-63
2023/01/05 10:10:11;;;;;;;31.10;6.95;;;;;;;11.55;70.53;102053.94;5100169;28;20473;-64
2023/01/05 10:15:34;;;;;;;32.10;6.65;;;;;;;11.54;70.57;102055.78;5099232;28;20561;-64
2023/01/05 10:18:10;;;;;;;35.67;6.82;;;;;;;11.45;70.37;102043.53;5100983;28;20062;-65
2023/01/05 10:20:50;;;;;;;38.58;8.07;;;;;;;11.52;70.66;102063.25;5099275;28;20074;-64
2023/01/05 10:23:31;;;;;;;43.33;7.40;;;;;;;11.62;70.21;102055.63;5099008;28;20048;-65
2023/01/05 10:26:06;;;;;;;39.33;6.63;;;;;;;11.78;69.79;102065.28;5101560;28;20062;-66
2023/01/05 10:28:42;;;;;;;39.35;6.93;;;;;;;11.97;69.16;102069.09;5101368;28;20137;-65
2023/01/05 10:31:22;;;;;;;26.73;6.30;;;;;;;12.12;68.83;102074.31;5101694;28;20143;-65
2023/01/05 10:33:54;;;;;;;32.25;6.57;;;;;;;12.30;68.30;102071.88;5098494;28;20044;-64
2023/01/05 10:36:46;;;;;;;26.95;7.20;;;;;;;12.50;67.25;102074.63;5102239;28;20127;-64
2023/01/05 10:39:52;;;;;;;41.08;8.40;;;;;;;12.71;66.62;102077.97;5105634;28;20040;-63
2023/01/05 10:42:36;;;;;;;36.20;6.43;;;;;;;12.75;66.21;102078.38;5104978;28;20055;-66
2023/01/05 10:45:09;;;;;;;32.83;6.13;;;;;;;12.64;66.59;102081.69;4748953;28;10000029;-65
2023/01/05 10:47:39;;;;;;;37.17;6.20;;;;;;;12.38;67.00;102052.81;5102579;28;20052;-65
2023/01/05 10:50:34;;;;;;;35.10;7.10;;;;;;;12.32;67.43;102070.63;5098254;28;20054;-66
2023/01/05 10:53:09;;;;;;;37.42;6.70;;;;;;;12.24;68.09;102081.59;5094925;28;20611;-64
2023/01/05 10:55:44;;;;;;;35.50;8.77;;;;;;;12.17;68.18;102082.59;5100212;28;20040;-64
2023/01/05 10:58:23;;;;;;;32.33;6.80;;;;;;;12.11;68.35;102078.06;5096584;28;20048;-63
2023/01/05 11:00:54;;;;;;;37.83;8.57;;;;;;;12.05;68.64;102083.22;5102350;28;20071;-65
2023/01/05 11:03:28;;;;;;;35.35;7.80;;;;;;;12.00;68.65;102079.47;5101453;28;20139;-65
2023/01/05 11:06:23;;;;;;;35.28;7.50;;;;;;;11.88;68.94;102064.91;5100157;28;20051;-67
2023/01/05 11:08:51;;;;;;;36.17;7.90;;;;;;;11.92;68.93;102075.06;5090463;28;20044;-67
2023/01/05 11:11:22;;;;;;;36.92;8.30;;;;;;;11.87;69.10;102077.53;5103396;28;20490;-66
2023/01/05 11:13:52;;;;;;;40.22;6.97;;;;;;;11.84;69.08;102080.63;5100239;28;20052;-65
2023/01/05 11:16:22;;;;;;;31.83;7.80;;;;;;;11.73;69.43;102076.63;5102059;28;20182;-66
2023/01/05 11:18:53;;;;;;;31.45;7.03;;;;;;;11.80;69.35;102083.94;5098300;28;20135;-63
2023/01/05 11:21:24;;;;;;;34.28;8.02;;;;;;;11.77;69.31;102082.47;5099101;28;20048;-66
2023/01/05 11:23:54;;;;;;;40.03;7.95;;;;;;;11.75;69.61;102089.88;5102444;28;20048;-66
2023/01/05 11:26:31;;;;;;;38.88;9.00;;;;;;;11.73;69.70;102083.88;5099919;28;20098;-65
2023/01/05 11:29:02;;;;;;;44.72;8.88;;;;;;;11.72;70.38;102082.19;5098244;28;20094;-67
2023/01/05 11:31:36;;;;;;;43.25;8.38;;;;;;;11.69;69.92;102088.81;5096998;28;20078;-68
2023/01/05 11:34:09;;;;;;;34.95;8.00;;;;;;;11.82;69.50;102085.38;5100810;28;20051;-65
2023/01/05 11:36:39;;;;;;;34.80;7.78;;;;;;;11.99;69.08;102081.31;5102418;28;20104;-63
2023/01/05 11:39:19;;;;;;;32.67;7.05;;;;;;;12.19;68.36;102075.97;5101572;28;20092;-65
2023/01/05 11:41:47;;;;;;;38.38;8.65;;;;;;;12.36;67.74;102066.50;5098829;28;20048;-65
2023/01/05 11:44:21;;;;;;;29.88;7.85;;;;;;;12.56;67.17;102066.53;5099611;28;20128;-63
2023/01/05 11:46:50;;;;;;;38.22;7.47;;;;;;;12.62;66.84;102064.88;5102408;28;20158;-65
2023/01/05 11:49:19;;;;;;;36.45;7.15;;;;;;;12.59;66.82;102058.03;5100576;28;20052;-65
2023/01/05 11:51:48;;;;;;;40.28;8.27;;;;;;;12.50;66.82;102059.25;5097399;28;20052;-66
2023/01/05 11:54:32;;;;;;;34.05;7.53;;;;;;;12.40;67.46;102058.81;5097807;28;20052;-64
2023/01/05 11:57:16;;;;;;;41.88;9.88;;;;;;;12.30;67.76;102055.69;5101484;28;20075;-66
2023/01/05 11:59:45;;;;;;;36.33;7.70;;;;;;;12.13;67.99;102047.19;5090708;28;20101;-67
2023/01/05 12:02:41;;;;;;;25.83;6.75;;;;;;;12.16;68.49;102062.09;5102323;28;20109;-66
2023/01/05 12:05:24;;;;;;;27.48;6.38;;;;;;;12.08;68.76;102060.44;5085369;28;20497;-66
2023/01/05 12:07:58;;;;;;;33.90;8.15;;;;;;;11.92;68.65;102041.91;5101638;28;20040;-67